sensor_id;sensor_type;location;lat;lon;timestamp;temperature;humidity
37754;DHT22;23596;52.520;13.464;2023-06-19T00:01:56;21.30;99.90
37754;DHT22;23596;52.520;13.464;2023-06-19T00:04:22;21.30;99.90
37754;DHT22;23596;52.520;13.464;2023-06-19T00:06:47;21.20;99.90
37754;DHT22;23596;52.520;13.464;2023-06-19T00:09:14;21.30;99.90
37754;DHT22;23596;52.520;13.464;2023-06-19T00:11:40;21.20;99.90
37754;DHT22;23596;52.520;13.464;2023-06-19T00:14:05;21.20;99.90
37754;DHT22;23596;52.520;13.464;2023-06-19T00:16:31;21.20;99.90
37754;DHT22;23596;52.520;13.464;2023-06-19T00:19:12;21.20;99.90
37754;DHT22;23596;52.520;13.464;2023-06-19T00:21:38;21.10;99.90
37754;DHT22;23596;52.520;13.464;2023-06-19T00:24:05;21.10;99.90
37754;DHT22;23596;52.520;13.464;2023-06-19T00:26:30;21.10;99.90
37754;DHT22;23596;52.520;13.464;2023-06-19T00:28:56;21.10;99.90
37754;DHT22;23596;52.520;13.464;2023-06-19T00:31:22;21.00;99.90
37754;DHT22;23596;52.520;13.464;2023-06-19T00:33:48;21.00;99.90
37754;DHT22;23596;52.520;13.464;2023-06-19T00:36:15;21.00;99.90
37754;DHT22;23596;52.520;13.464;2023-06-19T00:38:41;21.00;99.90
37754;DHT22;23596;52.520;13.464;2023-06-19T00:41:08;21.00;99.90
37754;DHT22;23596;52.520;13.464;2023-06-19T00:43:34;21.00;99.90
37754;DHT22;23596;52.520;13.464;2023-06-19T00:46:01;21.00;99.90
37754;DHT22;23596;52.520;13.464;2023-06-19T00:48:27;21.00;99.90
37754;DHT22;23596;52.520;13.464;2023-06-19T00:50:53;21.00;99.90
37754;DHT22;23596;52.520;13.464;2023-06-19T00:53:19;21.00;99.90
37754;DHT22;23596;52.520;13.464;2023-06-19T00:55:47;21.00;99.90
37754;DHT22;23596;52.520;13.464;2023-06-19T00:58:13;21.00;99.90
37754;DHT22;23596;52.520;13.464;2023-06-19T01:00:39;21.00;99.90
37754;DHT22;23596;52.520;13.464;2023-06-19T01:03:05;21.00;99.90
37754;DHT22;23596;52.520;13.464;2023-06-19T01:05:31;20.90;99.90
37754;DHT22;23596;52.520;13.464;2023-06-19T01:10:27;20.90;99.90
37754;DHT22;23596;52.520;13.464;2023-06-19T01:12:59;20.90;99.90
37754;DHT22;23596;52.520;13.464;2023-06-19T01:15:26;20.90;99.90
37754;DHT22;23596;52.520;13.464;2023-06-19T01:17:54;20.80;99.90
37754;DHT22;23596;52.520;13.464;2023-06-19T01:20:20;20.80;99.90
37754;DHT22;23596;52.520;13.464;2023-06-19T01:22:46;20.90;99.90
37754;DHT22;23596;52.520;13.464;2023-06-19T01:25:11;20.80;99.90
37754;DHT22;23596;52.520;13.464;2023-06-19T01:27:40;20.80;99.90
37754;DHT22;23596;52.520;13.464;2023-06-19T01:30:06;20.80;99.90
37754;DHT22;23596;52.520;13.464;2023-06-19T01:35:13;20.80;99.90
37754;DHT22;23596;52.520;13.464;2023-06-19T01:37:40;20.80;99.90
37754;DHT22;23596;52.520;13.464;2023-06-19T01:40:08;20.70;99.90
37754;DHT22;23596;52.520;13.464;2023-06-19T01:42:37;20.70;99.90
37754;DHT22;23596;52.520;13.464;2023-06-19T01:45:04;20.70;99.90
37754;DHT22;23596;52.520;13.464;2023-06-19T01:47:30;20.70;99.90
37754;DHT22;23596;52.520;13.464;2023-06-19T01:49:56;20.70;99.90
37754;DHT22;23596;52.520;13.464;2023-06-19T01:52:22;20.70;99.90
37754;DHT22;23596;52.520;13.464;2023-06-19T01:54:47;20.70;99.90
37754;DHT22;23596;52.520;13.464;2023-06-19T01:57:13;20.70;99.90
37754;DHT22;23596;52.520;13.464;2023-06-19T02:02:05;20.60;99.90
37754;DHT22;23596;52.520;13.464;2023-06-19T02:04:32;20.60;99.90
37754;DHT22;23596;52.520;13.464;2023-06-19T02:06:58;20.60;99.90
37754;DHT22;23596;52.520;13.464;2023-06-19T02:09:23;20.60;99.90
37754;DHT22;23596;52.520;13.464;2023-06-19T02:11:49;20.60;99.90
37754;DHT22;23596;52.520;13.464;2023-06-19T02:14:15;20.60;99.90
37754;DHT22;23596;52.520;13.464;2023-06-19T02:16:41;20.60;99.90
37754;DHT22;23596;52.520;13.464;2023-06-19T02:19:10;20.50;99.90
37754;DHT22;23596;52.520;13.464;2023-06-19T02:21:36;20.50;99.90
37754;DHT22;23596;52.520;13.464;2023-06-19T02:24:01;20.50;99.90
37754;DHT22;23596;52.520;13.464;2023-06-19T02:26:27;20.40;99.90
37754;DHT22;23596;52.520;13.464;2023-06-19T02:28:55;20.50;99.90
37754;DHT22;23596;52.520;13.464;2023-06-19T02:31:24;20.60;99.90
37754;DHT22;23596;52.520;13.464;2023-06-19T02:33:50;20.50;99.90
37754;DHT22;23596;52.520;13.464;2023-06-19T02:36:16;20.50;99.90
37754;DHT22;23596;52.520;13.464;2023-06-19T02:38:48;20.50;99.90
37754;DHT22;23596;52.520;13.464;2023-06-19T02:41:14;20.50;99.90
37754;DHT22;23596;52.520;13.464;2023-06-19T02:43:44;20.50;99.90
37754;DHT22;23596;52.520;13.464;2023-06-19T02:46:11;20.50;99.90
37754;DHT22;23596;52.520;13.464;2023-06-19T02:48:37;20.50;99.90
37754;DHT22;23596;52.520;13.464;2023-06-19T02:51:02;20.50;99.90
37754;DHT22;23596;52.520;13.464;2023-06-19T02:53:28;20.40;99.90
37754;DHT22;23596;52.520;13.464;2023-06-19T02:55:54;20.40;99.90
37754;DHT22;23596;52.520;13.464;2023-06-19T02:58:19;20.40;99.90
37754;DHT22;23596;52.520;13.464;2023-06-19T03:00:46;20.40;99.90
37754;DHT22;23596;52.520;13.464;2023-06-19T03:03:12;20.40;99.90
37754;DHT22;23596;52.520;13.464;2023-06-19T03:05:38;20.40;99.90
37754;DHT22;23596;52.520;13.464;2023-06-19T03:08:04;20.40;99.90
37754;DHT22;23596;52.520;13.464;2023-06-19T03:10:30;20.40;99.90
37754;DHT22;23596;52.520;13.464;2023-06-19T03:12:56;20.40;99.90
37754;DHT22;23596;52.520;13.464;2023-06-19T03:15:24;20.40;99.90
37754;DHT22;23596;52.520;13.464;2023-06-19T03:17:49;20.30;99.90
37754;DHT22;23596;52.520;13.464;2023-06-19T03:20:15;20.30;99.90
37754;DHT22;23596;52.520;13.464;2023-06-19T03:22:41;20.40;99.90
37754;DHT22;23596;52.520;13.464;2023-06-19T03:25:08;20.30;99.90
37754;DHT22;23596;52.520;13.464;2023-06-19T03:27:34;20.30;99.90
37754;DHT22;23596;52.520;13.464;2023-06-19T03:30:00;20.30;99.90
37754;DHT22;23596;52.520;13.464;2023-06-19T03:32:26;20.30;99.90
37754;DHT22;23596;52.520;13.464;2023-06-19T03:34:51;20.20;99.90
37754;DHT22;23596;52.520;13.464;2023-06-19T03:37:17;20.30;99.90
37754;DHT22;23596;52.520;13.464;2023-06-19T03:39:43;20.30;99.90
37754;DHT22;23596;52.520;13.464;2023-06-19T03:42:08;20.30;99.90
37754;DHT22;23596;52.520;13.464;2023-06-19T03:44:34;20.30;99.90
37754;DHT22;23596;52.520;13.464;2023-06-19T03:47:00;20.40;99.90
37754;DHT22;23596;52.520;13.464;2023-06-19T03:49:25;20.30;99.90
37754;DHT22;23596;52.520;13.464;2023-06-19T03:51:52;20.40;99.90
37754;DHT22;23596;52.520;13.464;2023-06-19T03:54:19;20.40;99.90
37754;DHT22;23596;52.520;13.464;2023-06-19T03:56:45;20.40;99.90
37754;DHT22;23596;52.520;13.464;2023-06-19T03:59:11;20.40;99.90
37754;DHT22;23596;52.520;13.464;2023-06-19T04:01:36;20.40;99.90
37754;DHT22;23596;52.520;13.464;2023-06-19T04:04:02;20.40;99.90
37754;DHT22;23596;52.520;13.464;2023-06-19T04:06:28;20.40;99.90
37754;DHT22;23596;52.520;13.464;2023-06-19T04:08:53;20.40;99.90
37754;DHT22;23596;52.520;13.464;2023-06-19T04:11:19;20.50;99.90
37754;DHT22;23596;52.520;13.464;2023-06-19T04:13:46;20.40;99.90
37754;DHT22;23596;52.520;13.464;2023-06-19T04:16:12;20.40;99.90
37754;DHT22;23596;52.520;13.464;2023-06-19T04:18:38;20.40;99.90
37754;DHT22;23596;52.520;13.464;2023-06-19T04:21:03;20.30;99.90
37754;DHT22;23596;52.520;13.464;2023-06-19T04:23:31;20.40;99.90
37754;DHT22;23596;52.520;13.464;2023-06-19T04:25:57;20.40;99.90
37754;DHT22;23596;52.520;13.464;2023-06-19T04:28:23;20.40;99.90
37754;DHT22;23596;52.520;13.464;2023-06-19T04:30:48;20.50;99.90
37754;DHT22;23596;52.520;13.464;2023-06-19T04:33:14;20.50;99.90
37754;DHT22;23596;52.520;13.464;2023-06-19T04:35:39;20.50;99.90
37754;DHT22;23596;52.520;13.464;2023-06-19T04:38:06;20.50;99.90
37754;DHT22;23596;52.520;13.464;2023-06-19T04:40:32;20.50;99.90
37754;DHT22;23596;52.520;13.464;2023-06-19T04:43:00;20.50;99.90
37754;DHT22;23596;52.520;13.464;2023-06-19T04:45:26;20.50;99.90
37754;DHT22;23596;52.520;13.464;2023-06-19T04:47:51;20.50;99.90
37754;DHT22;23596;52.520;13.464;2023-06-19T04:50:17;20.50;99.90
37754;DHT22;23596;52.520;13.464;2023-06-19T04:52:42;20.50;99.90
37754;DHT22;23596;52.520;13.464;2023-06-19T04:55:08;20.50;99.90
37754;DHT22;23596;52.520;13.464;2023-06-19T04:57:35;20.50;99.90
37754;DHT22;23596;52.520;13.464;2023-06-19T05:00:06;20.60;99.90
37754;DHT22;23596;52.520;13.464;2023-06-19T05:02:33;20.70;99.90
37754;DHT22;23596;52.520;13.464;2023-06-19T05:04:59;20.70;99.90
37754;DHT22;23596;52.520;13.464;2023-06-19T05:07:29;20.80;99.90
37754;DHT22;23596;52.520;13.464;2023-06-19T05:09:55;20.90;99.90
37754;DHT22;23596;52.520;13.464;2023-06-19T05:12:21;20.90;99.90
37754;DHT22;23596;52.520;13.464;2023-06-19T05:14:47;20.90;99.90
37754;DHT22;23596;52.520;13.464;2023-06-19T05:17:12;20.90;99.90
37754;DHT22;23596;52.520;13.464;2023-06-19T05:19:38;21.00;99.90
37754;DHT22;23596;52.520;13.464;2023-06-19T05:22:04;21.00;99.90
37754;DHT22;23596;52.520;13.464;2023-06-19T05:24:29;21.00;99.90
37754;DHT22;23596;52.520;13.464;2023-06-19T05:26:55;21.00;99.90
37754;DHT22;23596;52.520;13.464;2023-06-19T05:29:20;21.00;99.90
37754;DHT22;23596;52.520;13.464;2023-06-19T05:31:46;21.10;99.90
37754;DHT22;23596;52.520;13.464;2023-06-19T05:34:12;21.10;99.90
37754;DHT22;23596;52.520;13.464;2023-06-19T05:36:37;21.20;99.90
37754;DHT22;23596;52.520;13.464;2023-06-19T05:39:03;21.10;99.90
37754;DHT22;23596;52.520;13.464;2023-06-19T05:41:29;21.10;99.90
37754;DHT22;23596;52.520;13.464;2023-06-19T05:43:56;21.10;99.90
37754;DHT22;23596;52.520;13.464;2023-06-19T05:46:22;21.10;99.90
37754;DHT22;23596;52.520;13.464;2023-06-19T05:48:47;21.10;99.90
37754;DHT22;23596;52.520;13.464;2023-06-19T05:51:14;21.20;99.90
37754;DHT22;23596;52.520;13.464;2023-06-19T05:53:39;21.20;99.90
37754;DHT22;23596;52.520;13.464;2023-06-19T05:56:05;21.20;99.90
37754;DHT22;23596;52.520;13.464;2023-06-19T05:58:32;21.20;99.90
37754;DHT22;23596;52.520;13.464;2023-06-19T06:00:57;21.20;99.90
37754;DHT22;23596;52.520;13.464;2023-06-19T06:03:24;21.20;99.90
37754;DHT22;23596;52.520;13.464;2023-06-19T06:05:50;21.20;99.90
37754;DHT22;23596;52.520;13.464;2023-06-19T06:08:16;21.20;99.90
37754;DHT22;23596;52.520;13.464;2023-06-19T06:10:42;21.20;99.90
37754;DHT22;23596;52.520;13.464;2023-06-19T06:13:08;21.20;99.90
37754;DHT22;23596;52.520;13.464;2023-06-19T06:15:34;21.20;99.90
37754;DHT22;23596;52.520;13.464;2023-06-19T06:17:59;21.20;99.90
37754;DHT22;23596;52.520;13.464;2023-06-19T06:20:26;21.20;99.90
37754;DHT22;23596;52.520;13.464;2023-06-19T06:22:53;21.30;99.90
37754;DHT22;23596;52.520;13.464;2023-06-19T06:25:18;21.30;99.90
37754;DHT22;23596;52.520;13.464;2023-06-19T06:27:45;21.30;99.90
37754;DHT22;23596;52.520;13.464;2023-06-19T06:30:11;21.30;99.90
37754;DHT22;23596;52.520;13.464;2023-06-19T06:32:37;21.30;99.90
37754;DHT22;23596;52.520;13.464;2023-06-19T06:35:03;21.40;99.90
37754;DHT22;23596;52.520;13.464;2023-06-19T06:37:29;21.30;99.90
37754;DHT22;23596;52.520;13.464;2023-06-19T06:39:55;21.40;99.90
37754;DHT22;23596;52.520;13.464;2023-06-19T06:42:20;21.40;99.90
37754;DHT22;23596;52.520;13.464;2023-06-19T06:44:46;21.40;99.90
37754;DHT22;23596;52.520;13.464;2023-06-19T06:47:12;21.40;99.90
37754;DHT22;23596;52.520;13.464;2023-06-19T06:49:38;21.40;99.90
37754;DHT22;23596;52.520;13.464;2023-06-19T06:52:04;21.40;99.90
37754;DHT22;23596;52.520;13.464;2023-06-19T06:54:30;21.50;99.90
37754;DHT22;23596;52.520;13.464;2023-06-19T06:56:56;21.40;99.90
37754;DHT22;23596;52.520;13.464;2023-06-19T06:59:24;21.40;99.90
37754;DHT22;23596;52.520;13.464;2023-06-19T07:01:50;21.40;99.90
37754;DHT22;23596;52.520;13.464;2023-06-19T07:04:16;21.40;99.90
37754;DHT22;23596;52.520;13.464;2023-06-19T07:06:41;21.40;99.90
37754;DHT22;23596;52.520;13.464;2023-06-19T07:09:07;21.50;99.90
37754;DHT22;23596;52.520;13.464;2023-06-19T07:11:33;21.50;99.90
37754;DHT22;23596;52.520;13.464;2023-06-19T07:13:58;21.50;99.90
37754;DHT22;23596;52.520;13.464;2023-06-19T07:16:24;21.60;99.90
37754;DHT22;23596;52.520;13.464;2023-06-19T07:18:50;21.60;99.90
37754;DHT22;23596;52.520;13.464;2023-06-19T07:21:15;21.60;99.90
37754;DHT22;23596;52.520;13.464;2023-06-19T07:23:42;21.60;99.90
37754;DHT22;23596;52.520;13.464;2023-06-19T07:26:09;21.70;99.90
37754;DHT22;23596;52.520;13.464;2023-06-19T07:28:35;22.70;99.90
37754;DHT22;23596;52.520;13.464;2023-06-19T07:31:04;21.70;99.90
37754;DHT22;23596;52.520;13.464;2023-06-19T07:33:29;21.80;99.90
37754;DHT22;23596;52.520;13.464;2023-06-19T07:35:56;21.80;99.90
37754;DHT22;23596;52.520;13.464;2023-06-19T07:38:21;21.90;99.90
37754;DHT22;23596;52.520;13.464;2023-06-19T07:40:47;21.90;99.90
37754;DHT22;23596;52.520;13.464;2023-06-19T07:43:13;21.90;99.90
37754;DHT22;23596;52.520;13.464;2023-06-19T07:45:38;22.00;99.90
37754;DHT22;23596;52.520;13.464;2023-06-19T07:48:04;22.00;99.90
37754;DHT22;23596;52.520;13.464;2023-06-19T07:50:30;22.10;99.90
37754;DHT22;23596;52.520;13.464;2023-06-19T07:52:55;22.10;99.90
37754;DHT22;23596;52.520;13.464;2023-06-19T07:55:21;22.10;99.90
37754;DHT22;23596;52.520;13.464;2023-06-19T07:57:46;22.20;99.90
37754;DHT22;23596;52.520;13.464;2023-06-19T08:00:12;22.20;99.90
37754;DHT22;23596;52.520;13.464;2023-06-19T08:02:39;22.30;99.90
37754;DHT22;23596;52.520;13.464;2023-06-19T08:05:07;22.30;99.90
37754;DHT22;23596;52.520;13.464;2023-06-19T08:07:36;22.40;99.90
37754;DHT22;23596;52.520;13.464;2023-06-19T08:10:03;22.40;99.90
37754;DHT22;23596;52.520;13.464;2023-06-19T08:12:33;22.40;99.90
37754;DHT22;23596;52.520;13.464;2023-06-19T08:14:58;22.40;99.90
37754;DHT22;23596;52.520;13.464;2023-06-19T08:17:24;22.40;99.90
37754;DHT22;23596;52.520;13.464;2023-06-19T08:19:50;22.50;99.90
37754;DHT22;23596;52.520;13.464;2023-06-19T08:22:15;22.50;99.90
37754;DHT22;23596;52.520;13.464;2023-06-19T08:24:41;22.50;99.90
37754;DHT22;23596;52.520;13.464;2023-06-19T08:27:07;22.60;99.90
37754;DHT22;23596;52.520;13.464;2023-06-19T08:29:33;22.70;99.90
37754;DHT22;23596;52.520;13.464;2023-06-19T08:31:58;22.70;99.90
37754;DHT22;23596;52.520;13.464;2023-06-19T08:34:25;22.70;99.90
37754;DHT22;23596;52.520;13.464;2023-06-19T08:36:51;22.80;99.90
37754;DHT22;23596;52.520;13.464;2023-06-19T08:39:16;22.80;99.90
37754;DHT22;23596;52.520;13.464;2023-06-19T08:41:42;22.80;99.90
37754;DHT22;23596;52.520;13.464;2023-06-19T08:44:08;22.80;99.90
37754;DHT22;23596;52.520;13.464;2023-06-19T08:46:35;22.80;99.90
37754;DHT22;23596;52.520;13.464;2023-06-19T08:49:04;22.80;99.90
37754;DHT22;23596;52.520;13.464;2023-06-19T08:51:31;22.80;99.90
37754;DHT22;23596;52.520;13.464;2023-06-19T08:54:07;22.80;99.90
37754;DHT22;23596;52.520;13.464;2023-06-19T08:56:34;22.90;99.90
37754;DHT22;23596;52.520;13.464;2023-06-19T08:59:13;22.90;99.90
37754;DHT22;23596;52.520;13.464;2023-06-19T09:01:39;22.90;99.90
37754;DHT22;23596;52.520;13.464;2023-06-19T09:04:12;23.00;99.90
37754;DHT22;23596;52.520;13.464;2023-06-19T09:06:48;23.00;99.90
37754;DHT22;23596;52.520;13.464;2023-06-19T09:09:15;23.10;99.90
37754;DHT22;23596;52.520;13.464;2023-06-19T09:11:41;23.10;99.90
37754;DHT22;23596;52.520;13.464;2023-06-19T09:14:10;23.20;99.90
37754;DHT22;23596;52.520;13.464;2023-06-19T09:16:40;23.20;99.90
37754;DHT22;23596;52.520;13.464;2023-06-19T09:19:07;23.20;99.90
37754;DHT22;23596;52.520;13.464;2023-06-19T09:21:35;23.20;99.90
37754;DHT22;23596;52.520;13.464;2023-06-19T09:24:07;23.30;99.90
37754;DHT22;23596;52.520;13.464;2023-06-19T09:26:34;23.30;99.90
37754;DHT22;23596;52.520;13.464;2023-06-19T09:29:15;23.40;99.90
37754;DHT22;23596;52.520;13.464;2023-06-19T09:31:42;23.40;99.90
37754;DHT22;23596;52.520;13.464;2023-06-19T09:34:08;23.40;99.90
37754;DHT22;23596;52.520;13.464;2023-06-19T09:36:35;23.40;99.90
37754;DHT22;23596;52.520;13.464;2023-06-19T09:39:02;23.50;99.90
37754;DHT22;23596;52.520;13.464;2023-06-19T09:41:32;23.40;99.90
37754;DHT22;23596;52.520;13.464;2023-06-19T09:44:00;23.50;99.90
37754;DHT22;23596;52.520;13.464;2023-06-19T09:46:30;23.50;99.90
37754;DHT22;23596;52.520;13.464;2023-06-19T09:49:01;23.50;99.90
37754;DHT22;23596;52.520;13.464;2023-06-19T09:51:33;23.50;99.90
37754;DHT22;23596;52.520;13.464;2023-06-19T09:54:02;23.50;99.90
37754;DHT22;23596;52.520;13.464;2023-06-19T09:56:29;23.50;99.90
37754;DHT22;23596;52.520;13.464;2023-06-19T09:58:57;23.50;99.90
37754;DHT22;23596;52.520;13.464;2023-06-19T10:01:29;23.50;99.90
37754;DHT22;23596;52.520;13.464;2023-06-19T10:04:09;23.50;99.90
37754;DHT22;23596;52.520;13.464;2023-06-19T10:06:46;23.50;99.90
37754;DHT22;23596;52.520;13.464;2023-06-19T10:09:15;23.60;99.90
37754;DHT22;23596;52.520;13.464;2023-06-19T10:11:51;23.60;99.90
37754;DHT22;23596;52.520;13.464;2023-06-19T10:14:21;23.60;99.90
37754;DHT22;23596;52.520;13.464;2023-06-19T10:16:47;23.70;99.90
37754;DHT22;23596;52.520;13.464;2023-06-19T10:19:17;23.70;99.90
37754;DHT22;23596;52.520;13.464;2023-06-19T10:21:50;23.80;99.90
37754;DHT22;23596;52.520;13.464;2023-06-19T10:24:19;23.90;99.90
37754;DHT22;23596;52.520;13.464;2023-06-19T10:27:02;24.00;99.90
37754;DHT22;23596;52.520;13.464;2023-06-19T10:29:41;24.10;99.90
37754;DHT22;23596;52.520;13.464;2023-06-19T10:32:06;24.20;99.90
37754;DHT22;23596;52.520;13.464;2023-06-19T10:34:36;24.20;99.90
37754;DHT22;23596;52.520;13.464;2023-06-19T10:37:02;24.30;99.90
37754;DHT22;23596;52.520;13.464;2023-06-19T10:39:28;24.40;99.90
37754;DHT22;23596;52.520;13.464;2023-06-19T10:41:53;24.40;99.90
37754;DHT22;23596;52.520;13.464;2023-06-19T10:44:23;24.40;99.90
37754;DHT22;23596;52.520;13.464;2023-06-19T10:46:52;24.40;99.90
37754;DHT22;23596;52.520;13.464;2023-06-19T10:49:18;24.40;99.90
37754;DHT22;23596;52.520;13.464;2023-06-19T10:51:43;24.50;99.90
37754;DHT22;23596;52.520;13.464;2023-06-19T10:54:09;24.40;99.90
37754;DHT22;23596;52.520;13.464;2023-06-19T10:56:35;24.40;99.90
37754;DHT22;23596;52.520;13.464;2023-06-19T10:59:06;24.50;99.90
37754;DHT22;23596;52.520;13.464;2023-06-19T11:01:46;24.50;99.90
37754;DHT22;23596;52.520;13.464;2023-06-19T11:04:13;24.60;99.90
37754;DHT22;23596;52.520;13.464;2023-06-19T11:06:43;24.60;99.90
37754;DHT22;23596;52.520;13.464;2023-06-19T11:09:12;24.70;99.90
37754;DHT22;23596;52.520;13.464;2023-06-19T11:14:09;24.90;99.90
37754;DHT22;23596;52.520;13.464;2023-06-19T11:16:35;25.00;99.90
37754;DHT22;23596;52.520;13.464;2023-06-19T11:19:02;25.00;99.90
37754;DHT22;23596;52.520;13.464;2023-06-19T11:21:36;25.10;99.90
37754;DHT22;23596;52.520;13.464;2023-06-19T11:24:12;25.20;99.90
37754;DHT22;23596;52.520;13.464;2023-06-19T11:26:42;25.20;99.90
37754;DHT22;23596;52.520;13.464;2023-06-19T11:29:25;25.20;99.90
37754;DHT22;23596;52.520;13.464;2023-06-19T11:32:14;25.30;99.90
37754;DHT22;23596;52.520;13.464;2023-06-19T11:34:41;25.30;99.90
37754;DHT22;23596;52.520;13.464;2023-06-19T11:37:13;25.30;99.90
37754;DHT22;23596;52.520;13.464;2023-06-19T11:39:40;25.30;99.90
37754;DHT22;23596;52.520;13.464;2023-06-19T11:42:07;25.40;99.90
37754;DHT22;23596;52.520;13.464;2023-06-19T11:44:33;25.40;99.90
37754;DHT22;23596;52.520;13.464;2023-06-19T11:47:00;25.50;99.90
37754;DHT22;23596;52.520;13.464;2023-06-19T11:49:25;25.60;99.90
37754;DHT22;23596;52.520;13.464;2023-06-19T11:51:51;25.70;99.90
37754;DHT22;23596;52.520;13.464;2023-06-19T11:54:19;25.80;99.90
37754;DHT22;23596;52.520;13.464;2023-06-19T11:56:44;25.90;99.90
37754;DHT22;23596;52.520;13.464;2023-06-19T11:59:10;26.00;99.90
37754;DHT22;23596;52.520;13.464;2023-06-19T12:01:36;26.10;99.90
37754;DHT22;23596;52.520;13.464;2023-06-19T12:04:03;26.20;99.90
37754;DHT22;23596;52.520;13.464;2023-06-19T12:06:29;26.40;99.90
37754;DHT22;23596;52.520;13.464;2023-06-19T12:08:55;26.50;99.90
37754;DHT22;23596;52.520;13.464;2023-06-19T12:11:21;26.70;99.90
37754;DHT22;23596;52.520;13.464;2023-06-19T12:13:47;26.80;99.90
37754;DHT22;23596;52.520;13.464;2023-06-19T12:16:13;26.90;99.90
37754;DHT22;23596;52.520;13.464;2023-06-19T12:18:40;27.00;99.90
37754;DHT22;23596;52.520;13.464;2023-06-19T12:21:05;27.00;99.90
37754;DHT22;23596;52.520;13.464;2023-06-19T12:23:32;27.10;99.90
37754;DHT22;23596;52.520;13.464;2023-06-19T12:25:58;27.20;99.90
37754;DHT22;23596;52.520;13.464;2023-06-19T12:28:23;27.20;99.90
37754;DHT22;23596;52.520;13.464;2023-06-19T12:30:50;27.20;99.90
37754;DHT22;23596;52.520;13.464;2023-06-19T12:33:20;27.20;99.90
37754;DHT22;23596;52.520;13.464;2023-06-19T12:35:48;27.30;99.90
37754;DHT22;23596;52.520;13.464;2023-06-19T12:38:14;27.40;99.90
37754;DHT22;23596;52.520;13.464;2023-06-19T12:40:40;27.60;99.90
37754;DHT22;23596;52.520;13.464;2023-06-19T12:43:06;28.00;99.80
37754;DHT22;23596;52.520;13.464;2023-06-19T12:45:32;28.30;99.70
37754;DHT22;23596;52.520;13.464;2023-06-19T12:47:57;28.70;98.50
37754;DHT22;23596;52.520;13.464;2023-06-19T12:50:23;29.10;97.50
37754;DHT22;23596;52.520;13.464;2023-06-19T12:52:50;29.50;97.90
37754;DHT22;23596;52.520;13.464;2023-06-19T12:55:16;29.90;97.30
37754;DHT22;23596;52.520;13.464;2023-06-19T12:57:42;30.30;97.20
37754;DHT22;23596;52.520;13.464;2023-06-19T13:00:12;30.60;95.80
37754;DHT22;23596;52.520;13.464;2023-06-19T13:02:39;31.10;94.60
37754;DHT22;23596;52.520;13.464;2023-06-19T13:05:06;31.60;95.00
37754;DHT22;23596;52.520;13.464;2023-06-19T13:07:31;32.20;93.10
37754;DHT22;23596;52.520;13.464;2023-06-19T13:09:58;32.40;91.90
37754;DHT22;23596;52.520;13.464;2023-06-19T13:12:23;32.40;91.60
37754;DHT22;23596;52.520;13.464;2023-06-19T13:14:49;32.40;91.60
37754;DHT22;23596;52.520;13.464;2023-06-19T13:17:15;32.40;92.20
37754;DHT22;23596;52.520;13.464;2023-06-19T13:19:40;32.10;91.70
37754;DHT22;23596;52.520;13.464;2023-06-19T13:22:06;31.70;92.10
37754;DHT22;23596;52.520;13.464;2023-06-19T13:24:32;31.60;91.70
37754;DHT22;23596;52.520;13.464;2023-06-19T13:26:58;31.80;91.30
37754;DHT22;23596;52.520;13.464;2023-06-19T13:29:24;32.30;90.50
37754;DHT22;23596;52.520;13.464;2023-06-19T13:31:49;32.90;90.60
37754;DHT22;23596;52.520;13.464;2023-06-19T13:34:15;33.50;89.10
37754;DHT22;23596;52.520;13.464;2023-06-19T13:36:41;34.20;86.70
37754;DHT22;23596;52.520;13.464;2023-06-19T13:39:07;34.60;84.00
37754;DHT22;23596;52.520;13.464;2023-06-19T13:41:33;34.90;83.20
37754;DHT22;23596;52.520;13.464;2023-06-19T13:44:00;35.10;83.10
37754;DHT22;23596;52.520;13.464;2023-06-19T13:46:25;34.90;83.00
37754;DHT22;23596;52.520;13.464;2023-06-19T13:48:52;34.60;82.70
37754;DHT22;23596;52.520;13.464;2023-06-19T13:51:18;34.60;81.90
37754;DHT22;23596;52.520;13.464;2023-06-19T13:53:44;34.80;81.50
37754;DHT22;23596;52.520;13.464;2023-06-19T13:56:11;34.80;80.30
37754;DHT22;23596;52.520;13.464;2023-06-19T13:58:37;34.90;80.50
37754;DHT22;23596;52.520;13.464;2023-06-19T14:01:03;35.10;79.50
37754;DHT22;23596;52.520;13.464;2023-06-19T14:03:29;35.30;78.50
37754;DHT22;23596;52.520;13.464;2023-06-19T14:05:54;35.30;79.20
37754;DHT22;23596;52.520;13.464;2023-06-19T14:08:20;35.10;78.80
37754;DHT22;23596;52.520;13.464;2023-06-19T14:10:46;35.00;78.60
37754;DHT22;23596;52.520;13.464;2023-06-19T14:13:12;35.00;78.80
37754;DHT22;23596;52.520;13.464;2023-06-19T14:15:37;34.90;78.20
37754;DHT22;23596;52.520;13.464;2023-06-19T14:18:03;34.70;79.00
37754;DHT22;23596;52.520;13.464;2023-06-19T14:20:29;34.60;79.30
37754;DHT22;23596;52.520;13.464;2023-06-19T14:22:54;34.30;79.60
37754;DHT22;23596;52.520;13.464;2023-06-19T14:25:20;34.00;79.60
37754;DHT22;23596;52.520;13.464;2023-06-19T14:27:46;33.70;79.00
37754;DHT22;23596;52.520;13.464;2023-06-19T14:30:11;33.30;80.10
37754;DHT22;23596;52.520;13.464;2023-06-19T14:32:37;33.20;81.30
37754;DHT22;23596;52.520;13.464;2023-06-19T14:35:04;33.40;80.90
37754;DHT22;23596;52.520;13.464;2023-06-19T14:37:29;33.50;80.00
37754;DHT22;23596;52.520;13.464;2023-06-19T14:39:55;33.50;80.60
37754;DHT22;23596;52.520;13.464;2023-06-19T14:42:21;33.60;81.00
37754;DHT22;23596;52.520;13.464;2023-06-19T14:44:47;33.50;80.50
37754;DHT22;23596;52.520;13.464;2023-06-19T14:47:12;33.20;79.90
37754;DHT22;23596;52.520;13.464;2023-06-19T14:49:38;33.00;81.40
37754;DHT22;23596;52.520;13.464;2023-06-19T14:52:05;32.90;81.10
37754;DHT22;23596;52.520;13.464;2023-06-19T14:54:30;33.10;80.50
37754;DHT22;23596;52.520;13.464;2023-06-19T14:56:56;33.40;81.10
37754;DHT22;23596;52.520;13.464;2023-06-19T14:59:22;33.70;81.30
37754;DHT22;23596;52.520;13.464;2023-06-19T15:01:47;34.00;79.30
37754;DHT22;23596;52.520;13.464;2023-06-19T15:04:13;34.40;79.70
37754;DHT22;23596;52.520;13.464;2023-06-19T15:06:38;34.60;80.20
37754;DHT22;23596;52.520;13.464;2023-06-19T15:09:04;35.10;79.30
37754;DHT22;23596;52.520;13.464;2023-06-19T15:11:30;35.30;79.00
37754;DHT22;23596;52.520;13.464;2023-06-19T15:13:55;35.50;77.50
37754;DHT22;23596;52.520;13.464;2023-06-19T15:16:21;35.00;78.20
37754;DHT22;23596;52.520;13.464;2023-06-19T15:18:48;34.80;78.10
37754;DHT22;23596;52.520;13.464;2023-06-19T15:21:13;35.00;78.40
37754;DHT22;23596;52.520;13.464;2023-06-19T15:23:39;35.10;76.70